sensor_id;sensor_type;location;lat;lon;timestamp;pressure;altitude;pressure_sealevel;temperature;humidity
59545;BME280;45368;55.002;-1.592;2022-10-31T00:02:14;100299.51;;;9.90;67.53
59545;BME280;45368;55.002;-1.592;2022-10-31T00:04:41;100293.91;;;9.73;67.15
59545;BME280;45368;55.002;-1.592;2022-10-31T00:07:08;100291.99;;;9.93;66.73
59545;BME280;45368;55.002;-1.592;2022-10-31T00:09:35;100293.66;;;10.16;66.27
59545;BME280;45368;55.002;-1.592;2022-10-31T00:12:02;100291.93;;;9.53;67.61
59545;BME280;45368;55.002;-1.592;2022-10-31T00:14:29;100292.14;;;9.21;68.94
59545;BME280;45368;55.002;-1.592;2022-10-31T00:16:57;100294.59;;;9.64;68.13
59545;BME280;45368;55.002;-1.592;2022-10-31T00:19:25;100291.02;;;9.84;66.95
59545;BME280;45368;55.002;-1.592;2022-10-31T00:21:52;100285.23;;;10.21;67.19
59545;BME280;45368;55.002;-1.592;2022-10-31T00:24:18;100291.41;;;10.16;66.91
59545;BME280;45368;55.002;-1.592;2022-10-31T00:26:45;100296.43;;;10.29;66.62
59545;BME280;45368;55.002;-1.592;2022-10-31T00:29:12;100306.74;;;10.16;67.68
59545;BME280;45368;55.002;-1.592;2022-10-31T00:31:40;100314.83;;;10.24;66.12
59545;BME280;45368;55.002;-1.592;2022-10-31T00:34:06;100320.99;;;9.75;67.17
59545;BME280;45368;55.002;-1.592;2022-10-31T00:36:34;100325.20;;;9.87;66.67
59545;BME280;45368;55.002;-1.592;2022-10-31T00:39:01;100334.51;;;9.90;66.12
59545;BME280;45368;55.002;-1.592;2022-10-31T00:41:28;100334.77;;;10.33;64.95
59545;BME280;45368;55.002;-1.592;2022-10-31T00:43:55;100338.60;;;10.33;64.74
59545;BME280;45368;55.002;-1.592;2022-10-31T00:46:23;100343.90;;;10.82;62.95
59545;BME280;45368;55.002;-1.592;2022-10-31T00:48:51;100338.79;;;11.58;61.69
59545;BME280;45368;55.002;-1.592;2022-10-31T00:51:17;100338.99;;;11.30;61.98
59545;BME280;45368;55.002;-1.592;2022-10-31T00:53:44;100342.09;;;11.32;61.65
59545;BME280;45368;55.002;-1.592;2022-10-31T00:56:11;100333.76;;;10.43;63.60
59545;BME280;45368;55.002;-1.592;2022-10-31T00:58:38;100330.12;;;11.24;61.94
59545;BME280;45368;55.002;-1.592;2022-10-31T01:01:05;100331.83;;;10.47;64.18
59545;BME280;45368;55.002;-1.592;2022-10-31T01:03:33;100341.40;;;9.77;65.73
59545;BME280;45368;55.002;-1.592;2022-10-31T01:06:02;100342.12;;;9.78;67.71
59545;BME280;45368;55.002;-1.592;2022-10-31T01:08:30;100343.90;;;9.82;67.69
59545;BME280;45368;55.002;-1.592;2022-10-31T01:11:04;100345.48;;;10.31;65.27
59545;BME280;45368;55.002;-1.592;2022-10-31T01:13:32;100350.52;;;10.54;64.02
59545;BME280;45368;55.002;-1.592;2022-10-31T01:16:01;100353.51;;;10.72;63.37
59545;BME280;45368;55.002;-1.592;2022-10-31T01:18:29;100357.23;;;10.53;63.78
59545;BME280;45368;55.002;-1.592;2022-10-31T01:20:59;100368.80;;;11.15;62.34
59545;BME280;45368;55.002;-1.592;2022-10-31T01:23:27;100369.67;;;11.21;61.50
59545;BME280;45368;55.002;-1.592;2022-10-31T01:26:06;100371.26;;;11.37;61.79
59545;BME280;45368;55.002;-1.592;2022-10-31T01:28:35;100367.37;;;10.72;62.93
59545;BME280;45368;55.002;-1.592;2022-10-31T01:31:05;100366.84;;;10.01;65.88
59545;BME280;45368;55.002;-1.592;2022-10-31T01:33:34;100375.60;;;9.08;69.81
59545;BME280;45368;55.002;-1.592;2022-10-31T01:36:10;100373.23;;;9.26;69.65
59545;BME280;45368;55.002;-1.592;2022-10-31T01:38:37;100372.14;;;9.11;69.39
59545;BME280;45368;55.002;-1.592;2022-10-31T01:41:04;100374.17;;;9.02;70.36
59545;BME280;45368;55.002;-1.592;2022-10-31T01:43:43;100372.81;;;8.96;70.07
59545;BME280;45368;55.002;-1.592;2022-10-31T01:46:10;100369.51;;;9.26;71.02
59545;BME280;45368;55.002;-1.592;2022-10-31T01:48:39;100362.90;;;9.41;70.36
59545;BME280;45368;55.002;-1.592;2022-10-31T01:51:08;100371.24;;;8.62;72.89
59545;BME280;45368;55.002;-1.592;2022-10-31T01:53:39;100370.62;;;8.30;74.23
59545;BME280;45368;55.002;-1.592;2022-10-31T01:56:07;100363.54;;;9.08;72.19
59545;BME280;45368;55.002;-1.592;2022-10-31T01:58:35;100370.25;;;8.56;73.26
59545;BME280;45368;55.002;-1.592;2022-10-31T02:01:03;100370.41;;;8.89;71.38
59545;BME280;45368;55.002;-1.592;2022-10-31T02:03:31;100379.24;;;8.91;71.78
59545;BME280;45368;55.002;-1.592;2022-10-31T02:05:59;100382.21;;;9.61;69.42
59545;BME280;45368;55.002;-1.592;2022-10-31T02:08:29;100381.11;;;9.16;70.11
59545;BME280;45368;55.002;-1.592;2022-10-31T02:10:58;100382.87;;;9.31;69.92
59545;BME280;45368;55.002;-1.592;2022-10-31T02:13:28;100379.62;;;9.44;70.88
59545;BME280;45368;55.002;-1.592;2022-10-31T02:15:57;100378.43;;;9.47;70.36
59545;BME280;45368;55.002;-1.592;2022-10-31T02:18:27;100376.02;;;9.38;70.49
59545;BME280;45368;55.002;-1.592;2022-10-31T02:21:03;100371.86;;;8.76;71.33
59545;BME280;45368;55.002;-1.592;2022-10-31T02:23:56;100375.19;;;8.70;71.70
59545;BME280;45368;55.002;-1.592;2022-10-31T02:26:58;100374.95;;;8.37;72.90
59545;BME280;45368;55.002;-1.592;2022-10-31T02:30:39;100372.13;;;8.52;73.24
59545;BME280;45368;55.002;-1.592;2022-10-31T02:33:15;100371.77;;;9.21;70.36
59545;BME280;45368;55.002;-1.592;2022-10-31T02:35:55;100372.40;;;9.15;71.65
59545;BME280;45368;55.002;-1.592;2022-10-31T02:38:38;100369.91;;;8.78;72.13
59545;BME280;45368;55.002;-1.592;2022-10-31T02:41:18;100373.00;;;8.59;73.15
59545;BME280;45368;55.002;-1.592;2022-10-31T02:43:57;100375.16;;;8.25;74.01
59545;BME280;45368;55.002;-1.592;2022-10-31T02:46:32;100378.13;;;8.52;73.28
59545;BME280;45368;55.002;-1.592;2022-10-31T02:49:05;100381.41;;;8.75;72.69
59545;BME280;45368;55.002;-1.592;2022-10-31T02:51:34;100375.30;;;8.14;74.34
59545;BME280;45368;55.002;-1.592;2022-10-31T02:54:02;100369.90;;;8.70;73.08
59545;BME280;45368;55.002;-1.592;2022-10-31T02:56:30;100367.80;;;7.93;74.89
59545;BME280;45368;55.002;-1.592;2022-10-31T02:59:01;100367.32;;;8.51;75.12
59545;BME280;45368;55.002;-1.592;2022-10-31T03:01:55;100359.44;;;8.31;74.97
59545;BME280;45368;55.002;-1.592;2022-10-31T03:04:36;100365.17;;;8.52;75.62
59545;BME280;45368;55.002;-1.592;2022-10-31T03:07:14;100377.90;;;8.08;76.95
59545;BME280;45368;55.002;-1.592;2022-10-31T03:09:50;100384.91;;;8.09;77.04
59545;BME280;45368;55.002;-1.592;2022-10-31T03:12:25;100386.99;;;8.01;76.83
59545;BME280;45368;55.002;-1.592;2022-10-31T03:14:59;100388.28;;;8.40;76.59
59545;BME280;45368;55.002;-1.592;2022-10-31T03:17:36;100389.43;;;7.95;76.14
59545;BME280;45368;55.002;-1.592;2022-10-31T03:20:06;100381.43;;;8.53;75.53
59545;BME280;45368;55.002;-1.592;2022-10-31T03:22:35;100371.32;;;8.48;74.86
59545;BME280;45368;55.002;-1.592;2022-10-31T03:25:07;100369.02;;;8.39;75.09
59545;BME280;45368;55.002;-1.592;2022-10-31T03:27:35;100372.04;;;8.42;74.82
59545;BME280;45368;55.002;-1.592;2022-10-31T03:30:07;100365.78;;;8.52;75.44
59545;BME280;45368;55.002;-1.592;2022-10-31T03:32:38;100367.89;;;8.47;75.66
59545;BME280;45368;55.002;-1.592;2022-10-31T03:35:08;100368.61;;;8.39;76.01
59545;BME280;45368;55.002;-1.592;2022-10-31T03:37:39;100374.18;;;8.52;74.69
59545;BME280;45368;55.002;-1.592;2022-10-31T03:40:10;100369.98;;;8.60;74.55
59545;BME280;45368;55.002;-1.592;2022-10-31T03:42:41;100369.21;;;9.17;74.51
59545;BME280;45368;55.002;-1.592;2022-10-31T03:45:13;100368.34;;;7.81;75.44
59545;BME280;45368;55.002;-1.592;2022-10-31T03:47:42;100375.59;;;8.16;75.86
59545;BME280;45368;55.002;-1.592;2022-10-31T03:50:13;100368.64;;;8.24;75.89
59545;BME280;45368;55.002;-1.592;2022-10-31T03:52:45;100371.35;;;8.09;77.59
59545;BME280;45368;55.002;-1.592;2022-10-31T03:55:17;100361.03;;;8.30;76.03
59545;BME280;45368;55.002;-1.592;2022-10-31T03:57:51;100359.30;;;8.42;76.52
59545;BME280;45368;55.002;-1.592;2022-10-31T04:00:21;100364.05;;;8.41;75.69
59545;BME280;45368;55.002;-1.592;2022-10-31T04:02:51;100360.43;;;8.41;75.75
59545;BME280;45368;55.002;-1.592;2022-10-31T04:05:21;100366.52;;;8.10;77.53
59545;BME280;45368;55.002;-1.592;2022-10-31T04:07:53;100352.76;;;8.12;76.58
59545;BME280;45368;55.002;-1.592;2022-10-31T04:10:22;100356.13;;;8.46;75.52
59545;BME280;45368;55.002;-1.592;2022-10-31T04:12:56;100352.61;;;8.58;75.08
59545;BME280;45368;55.002;-1.592;2022-10-31T04:15:26;100348.99;;;8.26;77.02
59545;BME280;45368;55.002;-1.592;2022-10-31T04:17:57;100352.31;;;7.95;78.78
59545;BME280;45368;55.002;-1.592;2022-10-31T04:20:30;100347.58;;;8.33;77.36
59545;BME280;45368;55.002;-1.592;2022-10-31T04:22:58;100343.63;;;8.90;74.81
59545;BME280;45368;55.002;-1.592;2022-10-31T04:25:24;100352.80;;;8.90;74.54
59545;BME280;45368;55.002;-1.592;2022-10-31T04:27:51;100346.69;;;8.60;73.86
59545;BME280;45368;55.002;-1.592;2022-10-31T04:30:18;100337.73;;;9.29;72.10
59545;BME280;45368;55.002;-1.592;2022-10-31T04:32:45;100335.90;;;9.16;72.90
59545;BME280;45368;55.002;-1.592;2022-10-31T04:35:13;100325.98;;;9.86;69.82
59545;BME280;45368;55.002;-1.592;2022-10-31T04:37:41;100317.48;;;10.37;67.71
59545;BME280;45368;55.002;-1.592;2022-10-31T04:40:09;100317.78;;;9.69;69.95
59545;BME280;45368;55.002;-1.592;2022-10-31T04:42:36;100310.06;;;10.10;67.73
59545;BME280;45368;55.002;-1.592;2022-10-31T04:45:04;100312.74;;;11.10;65.05
59545;BME280;45368;55.002;-1.592;2022-10-31T04:47:31;100313.80;;;10.42;67.19
59545;BME280;45368;55.002;-1.592;2022-10-31T04:49:59;100310.05;;;10.14;68.10
59545;BME280;45368;55.002;-1.592;2022-10-31T04:52:39;100315.90;;;11.14;65.18
59545;BME280;45368;55.002;-1.592;2022-10-31T04:55:07;100324.46;;;11.42;62.97
59545;BME280;45368;55.002;-1.592;2022-10-31T04:57:40;100322.90;;;10.67;64.87
59545;BME280;45368;55.002;-1.592;2022-10-31T05:00:08;100316.47;;;10.63;66.56
59545;BME280;45368;55.002;-1.592;2022-10-31T05:02:43;100322.55;;;9.88;67.52
59545;BME280;45368;55.002;-1.592;2022-10-31T05:05:10;100323.79;;;10.36;66.48
59545;BME280;45368;55.002;-1.592;2022-10-31T05:07:39;100319.46;;;9.94;67.02
59545;BME280;45368;55.002;-1.592;2022-10-31T05:10:07;100320.36;;;10.13;67.36
59545;BME280;45368;55.002;-1.592;2022-10-31T05:12:35;100320.40;;;9.93;68.18
59545;BME280;45368;55.002;-1.592;2022-10-31T05:15:04;100329.56;;;9.73;69.43
59545;BME280;45368;55.002;-1.592;2022-10-31T05:17:31;100331.26;;;9.59;70.81
59545;BME280;45368;55.002;-1.592;2022-10-31T05:19:58;100326.57;;;9.25;71.60
59545;BME280;45368;55.002;-1.592;2022-10-31T05:22:26;100340.22;;;8.92;74.01
59545;BME280;45368;55.002;-1.592;2022-10-31T05:24:53;100342.00;;;8.66;74.23
59545;BME280;45368;55.002;-1.592;2022-10-31T05:27:24;100335.04;;;8.55;74.90
59545;BME280;45368;55.002;-1.592;2022-10-31T05:29:51;100326.85;;;8.92;74.60
59545;BME280;45368;55.002;-1.592;2022-10-31T05:32:19;100328.79;;;8.50;75.72
59545;BME280;45368;55.002;-1.592;2022-10-31T05:34:47;100320.48;;;8.67;74.73
59545;BME280;45368;55.002;-1.592;2022-10-31T05:37:15;100318.30;;;9.05;74.36
59545;BME280;45368;55.002;-1.592;2022-10-31T05:39:43;100315.86;;;8.43;76.36
59545;BME280;45368;55.002;-1.592;2022-10-31T05:42:11;100315.48;;;8.86;75.33
59545;BME280;45368;55.002;-1.592;2022-10-31T05:44:38;100311.22;;;8.08;77.92
59545;BME280;45368;55.002;-1.592;2022-10-31T05:47:05;100307.40;;;8.71;76.01
59545;BME280;45368;55.002;-1.592;2022-10-31T05:49:33;100305.62;;;8.51;76.56
59545;BME280;45368;55.002;-1.592;2022-10-31T05:52:00;100303.57;;;8.46;76.87
59545;BME280;45368;55.002;-1.592;2022-10-31T05:54:27;100301.46;;;8.48;78.36
59545;BME280;45368;55.002;-1.592;2022-10-31T05:56:54;100296.98;;;8.29;78.93
59545;BME280;45368;55.002;-1.592;2022-10-31T05:59:21;100290.33;;;8.48;78.71
59545;BME280;45368;55.002;-1.592;2022-10-31T06:01:48;100294.72;;;7.84;80.23
59545;BME280;45368;55.002;-1.592;2022-10-31T06:04:15;100297.06;;;8.81;77.97
59545;BME280;45368;55.002;-1.592;2022-10-31T06:06:42;100293.14;;;8.47;78.42
59545;BME280;45368;55.002;-1.592;2022-10-31T06:09:10;100288.32;;;8.37;78.62
59545;BME280;45368;55.002;-1.592;2022-10-31T06:11:36;100292.84;;;8.33;77.44
59545;BME280;45368;55.002;-1.592;2022-10-31T06:14:04;100292.39;;;7.70;80.25
59545;BME280;45368;55.002;-1.592;2022-10-31T06:16:31;100293.92;;;8.29;77.70
59545;BME280;45368;55.002;-1.592;2022-10-31T06:18:58;100295.34;;;8.13;78.64
59545;BME280;45368;55.002;-1.592;2022-10-31T06:21:26;100291.18;;;8.27;77.82
59545;BME280;45368;55.002;-1.592;2022-10-31T06:23:54;100288.31;;;8.50;77.76
59545;BME280;45368;55.002;-1.592;2022-10-31T06:26:22;100295.86;;;7.85;78.85
59545;BME280;45368;55.002;-1.592;2022-10-31T06:28:49;100300.64;;;7.94;78.58
59545;BME280;45368;55.002;-1.592;2022-10-31T06:31:16;100306.20;;;8.16;78.06
59545;BME280;45368;55.002;-1.592;2022-10-31T06:33:44;100309.44;;;8.15;78.71
59545;BME280;45368;55.002;-1.592;2022-10-31T06:36:11;100309.84;;;8.20;77.97
59545;BME280;45368;55.002;-1.592;2022-10-31T06:38:38;100310.58;;;7.95;79.63
59545;BME280;45368;55.002;-1.592;2022-10-31T06:41:06;100303.47;;;8.25;77.62
59545;BME280;45368;55.002;-1.592;2022-10-31T06:43:33;100305.19;;;8.15;77.80
59545;BME280;45368;55.002;-1.592;2022-10-31T06:46:03;100299.84;;;8.45;76.98
59545;BME280;45368;55.002;-1.592;2022-10-31T06:48:31;100296.45;;;8.12;77.76
59545;BME280;45368;55.002;-1.592;2022-10-31T06:50:58;100304.10;;;8.18;79.37
59545;BME280;45368;55.002;-1.592;2022-10-31T06:53:27;100300.77;;;8.72;76.06
59545;BME280;45368;55.002;-1.592;2022-10-31T06:55:55;100303.08;;;8.22;78.06
59545;BME280;45368;55.002;-1.592;2022-10-31T06:58:23;100306.88;;;8.59;76.25
59545;BME280;45368;55.002;-1.592;2022-10-31T07:00:50;100310.27;;;8.57;76.43
59545;BME280;45368;55.002;-1.592;2022-10-31T07:03:17;100312.05;;;8.93;75.15
59545;BME280;45368;55.002;-1.592;2022-10-31T07:05:44;100319.17;;;8.85;75.05
59545;BME280;45368;55.002;-1.592;2022-10-31T07:08:13;100315.78;;;8.77;74.91
59545;BME280;45368;55.002;-1.592;2022-10-31T07:10:42;100322.91;;;8.50;75.99
59545;BME280;45368;55.002;-1.592;2022-10-31T07:13:11;100329.36;;;8.09;77.69
59545;BME280;45368;55.002;-1.592;2022-10-31T07:15:40;100339.11;;;7.96;78.25
59545;BME280;45368;55.002;-1.592;2022-10-31T07:18:10;100354.63;;;8.23;78.72
59545;BME280;45368;55.002;-1.592;2022-10-31T07:20:38;100348.93;;;7.95;79.36
59545;BME280;45368;55.002;-1.592;2022-10-31T07:23:05;100349.03;;;8.07;78.86
59545;BME280;45368;55.002;-1.592;2022-10-31T07:25:33;100342.30;;;8.00;78.32
59545;BME280;45368;55.002;-1.592;2022-10-31T07:27:59;100340.50;;;8.83;76.19
59545;BME280;45368;55.002;-1.592;2022-10-31T07:30:27;100340.71;;;9.25;74.80
59545;BME280;45368;55.002;-1.592;2022-10-31T07:32:54;100351.34;;;8.71;75.97
59545;BME280;45368;55.002;-1.592;2022-10-31T07:35:23;100347.42;;;9.31;73.26
59545;BME280;45368;55.002;-1.592;2022-10-31T07:37:51;100343.26;;;9.90;70.85
59545;BME280;45368;55.002;-1.592;2022-10-31T07:40:19;100347.34;;;9.48;72.78
59545;BME280;45368;55.002;-1.592;2022-10-31T07:42:47;100337.60;;;10.26;69.62
59545;BME280;45368;55.002;-1.592;2022-10-31T07:45:18;100334.51;;;10.34;68.40
59545;BME280;45368;55.002;-1.592;2022-10-31T07:47:47;100336.36;;;10.36;68.01
59545;BME280;45368;55.002;-1.592;2022-10-31T07:50:17;100339.86;;;10.54;67.85
59545;BME280;45368;55.002;-1.592;2022-10-31T07:52:45;100339.82;;;10.05;68.96
59545;BME280;45368;55.002;-1.592;2022-10-31T07:55:13;100336.74;;;10.89;67.22
59545;BME280;45368;55.002;-1.592;2022-10-31T07:57:40;100340.26;;;10.07;69.30
59545;BME280;45368;55.002;-1.592;2022-10-31T08:00:09;100339.78;;;9.79;70.97
59545;BME280;45368;55.002;-1.592;2022-10-31T08:02:36;100334.69;;;9.33;72.47
59545;BME280;45368;55.002;-1.592;2022-10-31T08:05:04;100326.47;;;9.58;71.91
59545;BME280;45368;55.002;-1.592;2022-10-31T08:07:36;100338.42;;;9.46;72.49
59545;BME280;45368;55.002;-1.592;2022-10-31T08:10:03;100338.96;;;9.80;70.44
59545;BME280;45368;55.002;-1.592;2022-10-31T08:12:31;100336.48;;;9.64;71.68
59545;BME280;45368;55.002;-1.592;2022-10-31T08:14:58;100333.76;;;9.71;72.61
59545;BME280;45368;55.002;-1.592;2022-10-31T08:17:25;100316.82;;;9.85;70.54
59545;BME280;45368;55.002;-1.592;2022-10-31T08:19:52;100320.77;;;9.90;71.22
59545;BME280;45368;55.002;-1.592;2022-10-31T08:22:19;100319.77;;;9.65;72.46
59545;BME280;45368;55.002;-1.592;2022-10-31T08:24:46;100322.86;;;8.97;74.54
59545;BME280;45368;55.002;-1.592;2022-10-31T08:27:13;100324.80;;;9.17;74.75
59545;BME280;45368;55.002;-1.592;2022-10-31T08:29:40;100318.84;;;9.50;73.68
59545;BME280;45368;55.002;-1.592;2022-10-31T08:32:08;100322.44;;;9.02;74.88
59545;BME280;45368;55.002;-1.592;2022-10-31T08:34:35;100324.41;;;9.26;74.62
59545;BME280;45368;55.002;-1.592;2022-10-31T08:37:02;100337.81;;;8.86;76.39
59545;BME280;45368;55.002;-1.592;2022-10-31T08:39:30;100338.74;;;8.70;77.45
59545;BME280;45368;55.002;-1.592;2022-10-31T08:41:57;100329.24;;;8.90;76.49
59545;BME280;45368;55.002;-1.592;2022-10-31T08:44:24;100333.16;;;8.32;78.05
59545;BME280;45368;55.002;-1.592;2022-10-31T08:46:52;100332.63;;;8.78;77.55
59545;BME280;45368;55.002;-1.592;2022-10-31T08:49:19;100329.26;;;8.83;77.82
59545;BME280;45368;55.002;-1.592;2022-10-31T08:51:47;100337.86;;;8.71;77.45
59545;BME280;45368;55.002;-1.592;2022-10-31T08:54:14;100335.20;;;9.11;76.31
59545;BME280;45368;55.002;-1.592;2022-10-31T08:56:41;100335.26;;;8.82;77.15
59545;BME280;45368;55.002;-1.592;2022-10-31T08:59:08;100345.94;;;9.00;76.93
59545;BME280;45368;55.002;-1.592;2022-10-31T09:01:35;100345.00;;;8.64;77.62
59545;BME280;45368;55.002;-1.592;2022-10-31T09:04:02;100340.78;;;8.69;76.98
59545;BME280;45368;55.002;-1.592;2022-10-31T09:06:29;100344.59;;;8.44;77.87
59545;BME280;45368;55.002;-1.592;2022-10-31T09:08:57;100343.64;;;9.18;76.70
59545;BME280;45368;55.002;-1.592;2022-10-31T09:11:24;100343.63;;;9.46;74.91
59545;BME280;45368;55.002;-1.592;2022-10-31T09:13:52;100340.32;;;9.75;73.90
59545;BME280;45368;55.002;-1.592;2022-10-31T09:16:20;100337.71;;;9.20;75.31
59545;BME280;45368;55.002;-1.592;2022-10-31T09:18:46;100343.00;;;8.95;77.79
59545;BME280;45368;55.002;-1.592;2022-10-31T09:21:14;100332.62;;;9.10;76.44
59545;BME280;45368;55.002;-1.592;2022-10-31T09:23:41;100332.79;;;8.84;77.56
59545;BME280;45368;55.002;-1.592;2022-10-31T09:26:08;100325.13;;;8.76;78.33
59545;BME280;45368;55.002;-1.592;2022-10-31T09:28:35;100321.24;;;9.02;77.43
59545;BME280;45368;55.002;-1.592;2022-10-31T09:31:02;100325.21;;;8.80;78.40
59545;BME280;45368;55.002;-1.592;2022-10-31T09:33:29;100321.11;;;9.24;77.09
59545;BME280;45368;55.002;-1.592;2022-10-31T09:35:58;100314.05;;;9.45;76.98
59545;BME280;45368;55.002;-1.592;2022-10-31T09:38:26;100317.33;;;9.24;77.22
59545;BME280;45368;55.002;-1.592;2022-10-31T09:40:57;100314.92;;;8.83;77.64
59545;BME280;45368;55.002;-1.592;2022-10-31T09:43:35;100318.11;;;9.81;74.76
59545;BME280;45368;55.002;-1.592;2022-10-31T09:46:09;100315.64;;;9.83;74.91
59545;BME280;45368;55.002;-1.592;2022-10-31T09:48:50;100310.86;;;9.37;75.63
59545;BME280;45368;55.002;-1.592;2022-10-31T09:51:24;100308.80;;;9.35;76.35
59545;BME280;45368;55.002;-1.592;2022-10-31T09:53:59;100305.03;;;10.12;74.37
59545;BME280;45368;55.002;-1.592;2022-10-31T09:56:28;100312.15;;;9.76;73.70
59545;BME280;45368;55.002;-1.592;2022-10-31T09:58:58;100309.81;;;9.91;74.47
59545;BME280;45368;55.002;-1.592;2022-10-31T10:01:34;100316.25;;;9.96;74.61
59545;BME280;45368;55.002;-1.592;2022-10-31T10:04:16;100307.70;;;9.86;74.09
59545;BME280;45368;55.002;-1.592;2022-10-31T10:06:47;100314.59;;;10.13;72.43
59545;BME280;45368;55.002;-1.592;2022-10-31T10:09:16;100309.35;;;9.74;74.49
59545;BME280;45368;55.002;-1.592;2022-10-31T10:11:51;100321.33;;;10.37;73.63
59545;BME280;45368;55.002;-1.592;2022-10-31T10:14:49;100322.93;;;10.46;72.91
59545;BME280;45368;55.002;-1.592;2022-10-31T10:17:29;100322.81;;;10.60;73.24
59545;BME280;45368;55.002;-1.592;2022-10-31T10:20:15;100321.44;;;9.98;73.88
59545;BME280;45368;55.002;-1.592;2022-10-31T10:22:47;100323.66;;;10.04;72.92
59545;BME280;45368;55.002;-1.592;2022-10-31T10:25:20;100326.29;;;10.49;72.22
59545;BME280;45368;55.002;-1.592;2022-10-31T10:28:04;100326.88;;;10.43;72.67
59545;BME280;45368;55.002;-1.592;2022-10-31T10:30:39;100323.79;;;9.99;74.21
59545;BME280;45368;55.002;-1.592;2022-10-31T10:33:11;100325.79;;;10.79;72.44
59545;BME280;45368;55.002;-1.592;2022-10-31T10:35:42;100322.53;;;11.08;69.48
59545;BME280;45368;55.002;-1.592;2022-10-31T10:38:16;100313.05;;;11.94;66.49
59545;BME280;45368;55.002;-1.592;2022-10-31T10:40:45;100314.09;;;11.30;68.76
59545;BME280;45368;55.002;-1.592;2022-10-31T10:43:20;100310.52;;;12.42;65.76
59545;BME280;45368;55.002;-1.592;2022-10-31T10:45:58;100307.88;;;13.04;63.67
59545;BME280;45368;55.002;-1.592;2022-10-31T10:48:36;100307.02;;;13.41;61.41
59545;BME280;45368;55.002;-1.592;2022-10-31T10:51:10;100314.08;;;12.93;63.24
59545;BME280;45368;55.002;-1.592;2022-10-31T10:53:51;100307.03;;;13.82;61.67
59545;BME280;45368;55.002;-1.592;2022-10-31T10:56:35;100297.15;;;14.24;60.55
59545;BME280;45368;55.002;-1.592;2022-10-31T10:59:04;100302.06;;;14.53;59.00
59545;BME280;45368;55.002;-1.592;2022-10-31T11:01:31;100298.36;;;13.94;59.54
59545;BME280;45368;55.002;-1.592;2022-10-31T11:03:58;100288.71;;;15.02;58.29
59545;BME280;45368;55.002;-1.592;2022-10-31T11:06:25;100288.02;;;15.08;57.54
59545;BME280;45368;55.002;-1.592;2022-10-31T11:08:52;100289.45;;;14.88;57.67
59545;BME280;45368;55.002;-1.592;2022-10-31T11:11:26;100285.71;;;15.41;56.45
59545;BME280;45368;55.002;-1.592;2022-10-31T11:13:59;100275.07;;;16.16;54.60
59545;BME280;45368;55.002;-1.592;2022-10-31T11:16:30;100269.90;;;15.22;55.63
59545;BME280;45368;55.002;-1.592;2022-10-31T11:19:13;100268.78;;;14.77;57.32
59545;BME280;45368;55.002;-1.592;2022-10-31T11:21:44;100266.37;;;14.81;57.68
59545;BME280;45368;55.002;-1.592;2022-10-31T11:24:16;100253.76;;;14.24;58.03
59545;BME280;45368;55.002;-1.592;2022-10-31T11:26:50;100257.88;;;14.45;57.64
59545;BME280;45368;55.002;-1.592;2022-10-31T11:29:24;100254.22;;;13.12;61.53
59545;BME280;45368;55.002;-1.592;2022-10-31T11:31:53;100252.59;;;13.40;61.95
59545;BME280;45368;55.002;-1.592;2022-10-31T11:34:29;100256.85;;;12.35;64.80
59545;BME280;45368;55.002;-1.592;2022-10-31T11:37:03;100250.98;;;11.98;67.03
59545;BME280;45368;55.002;-1.592;2022-10-31T11:39:30;100251.89;;;11.62;67.49
59545;BME280;45368;55.002;-1.592;2022-10-31T11:42:02;100248.39;;;11.93;66.99
59545;BME280;45368;55.002;-1.592;2022-10-31T11:44:30;100237.00;;;11.91;67.45
59545;BME280;45368;55.002;-1.592;2022-10-31T11:47:00;100239.76;;;12.31;65.74
59545;BME280;45368;55.002;-1.592;2022-10-31T11:49:31;100234.16;;;12.29;66.46
59545;BME280;45368;55.002;-1.592;2022-10-31T11:52:04;100233.87;;;12.11;65.76
59545;BME280;45368;55.002;-1.592;2022-10-31T11:54:34;100228.57;;;12.02;66.17
59545;BME280;45368;55.002;-1.592;2022-10-31T11:57:05;100230.93;;;11.89;67.44
59545;BME280;45368;55.002;-1.592;2022-10-31T11:59:32;100221.93;;;12.56;65.23
59545;BME280;45368;55.002;-1.592;2022-10-31T12:02:01;100233.18;;;12.42;66.46
59545;BME280;45368;55.002;-1.592;2022-10-31T12:04:34;100227.76;;;12.24;66.11
59545;BME280;45368;55.002;-1.592;2022-10-31T12:07:04;100224.22;;;11.90;67.46
59545;BME280;45368;55.002;-1.592;2022-10-31T12:09:34;100225.52;;;12.13;67.03
59545;BME280;45368;55.002;-1.592;2022-10-31T12:12:16;100215.50;;;13.34;63.63
59545;BME280;45368;55.002;-1.592;2022-10-31T12:14:57;100216.56;;;12.27;66.37
59545;BME280;45368;55.002;-1.592;2022-10-31T12:17:33;100212.42;;;12.19;67.17
59545;BME280;45368;55.002;-1.592;2022-10-31T12:20:16;100211.95;;;12.66;65.52
59545;BME280;45368;55.002;-1.592;2022-10-31T12:22:54;100202.17;;;12.96;65.13
59545;BME280;45368;55.002;-1.592;2022-10-31T12:25:33;100209.07;;;12.69;64.77
59545;BME280;45368;55.002;-1.592;2022-10-31T12:28:28;100208.26;;;12.16;67.49
59545;BME280;45368;55.002;-1.592;2022-10-31T12:31:05;100200.67;;;11.94;69.13
59545;BME280;45368;55.002;-1.592;2022-10-31T12:33:47;100198.38;;;12.42;66.27
59545;BME280;45368;55.002;-1.592;2022-10-31T12:36:29;100193.94;;;12.68;65.30
59545;BME280;45368;55.002;-1.592;2022-10-31T12:39:13;100180.70;;;13.80;62.70
59545;BME280;45368;55.002;-1.592;2022-10-31T12:41:47;100178.39;;;14.53;60.33
59545;BME280;45368;55.002;-1.592;2022-10-31T12:44:35;100174.06;;;13.99;61.29
59545;BME280;45368;55.002;-1.592;2022-10-31T12:47:26;100180.49;;;13.14;63.47
59545;BME280;45368;55.002;-1.592;2022-10-31T12:50:08;100177.98;;;13.09;63.91
59545;BME280;45368;55.002;-1.592;2022-10-31T12:52:53;100163.26;;;14.02;60.79
59545;BME280;45368;55.002;-1.592;2022-10-31T12:55:35;100158.03;;;14.66;58.89
59545;BME280;45368;55.002;-1.592;2022-10-31T12:58:09;100153.71;;;14.86;58.31
59545;BME280;45368;55.002;-1.592;2022-10-31T13:00:40;100153.41;;;14.00;59.97
59545;BME280;45368;55.002;-1.592;2022-10-31T13:03:23;100158.18;;;13.93;60.97
59545;BME280;45368;55.002;-1.592;2022-10-31T13:05:54;100154.87;;;14.09;60.08